createdAt,value
2023-05-11T00:00:34.780Z,38.47
2023-05-11T00:01:37.381Z,34.80
2023-05-11T00:02:40.196Z,37.05
2023-05-11T00:03:42.709Z,44.30
2023-05-11T00:04:44.955Z,36.60
2023-05-11T00:05:48.777Z,39.22
2023-05-11T00:06:50.934Z,40.67
2023-05-11T00:07:53.038Z,39.13
2023-05-11T00:08:55.336Z,39.72
2023-05-11T00:09:57.511Z,40.38
2023-05-11T00:11:02.720Z,38.40
2023-05-11T00:12:05.143Z,45.83
2023-05-11T00:13:07.236Z,39.25
2023-05-11T00:14:10.775Z,42.47
2023-05-11T00:15:12.920Z,34.33
2023-05-11T00:16:15.161Z,41.00
2023-05-11T00:17:18.998Z,37.25
2023-05-11T00:18:21.632Z,37.47
2023-05-11T00:19:23.756Z,38.55
2023-05-11T00:20:25.969Z,47.95
2023-05-11T00:21:28.102Z,37.10
2023-05-11T00:22:30.436Z,40.80
2023-05-11T00:23:32.610Z,40.75
2023-05-11T00:24:34.890Z,35.92
2023-05-11T00:25:37.081Z,40.63
2023-05-11T00:26:39.229Z,43.67
2023-05-11T00:27:45.876Z,45.65
2023-05-11T00:28:48.092Z,40.45
2023-05-11T00:29:51.883Z,37.33
2023-05-11T00:30:56.393Z,38.28
2023-05-11T00:31:58.554Z,41.20
2023-05-11T00:33:00.794Z,41.13
2023-05-11T00:34:02.936Z,37.33
2023-05-11T00:35:06.270Z,44.25
2023-05-11T00:36:08.693Z,38.40
2023-05-11T00:37:10.864Z,41.95
2023-05-11T00:38:12.960Z,43.88
2023-05-11T00:39:15.098Z,45.17
2023-05-11T00:40:17.520Z,54.00
2023-05-11T00:41:19.724Z,46.20
2023-05-11T00:42:21.837Z,50.17
2023-05-11T00:43:23.964Z,41.25
2023-05-11T00:44:26.160Z,49.80
2023-05-11T00:45:30.477Z,39.88
2023-05-11T00:46:32.793Z,46.50
2023-05-11T00:47:35.048Z,52.03
2023-05-11T00:48:37.589Z,60.15
2023-05-11T00:49:39.991Z,47.63
2023-05-11T00:50:42.890Z,50.75
2023-05-11T00:51:45.133Z,47.38
2023-05-11T00:52:48.177Z,42.75
2023-05-11T00:53:50.708Z,43.88
2023-05-11T00:54:53.172Z,45.03
2023-05-11T00:55:55.346Z,40.78
2023-05-11T00:56:57.473Z,46.83
2023-05-11T00:58:00.708Z,42.08
2023-05-11T00:59:03.325Z,44.50
2023-05-11T01:00:07.228Z,38.83
2023-05-11T01:01:10.915Z,42.03
2023-05-11T01:02:13.149Z,37.70
2023-05-11T01:03:16.674Z,44.53
2023-05-11T01:04:19.419Z,40.30
2023-05-11T01:05:21.783Z,39.05
2023-05-11T01:06:32.721Z,40.55
2023-05-11T01:07:40.709Z,43.70
2023-05-11T01:08:48.052Z,43.80
2023-05-11T01:10:00.506Z,48.17
2023-05-11T01:11:08.267Z,40.55
2023-05-11T01:12:15.861Z,39.50
2023-05-11T01:13:26.755Z,43.03
2023-05-11T01:14:37.132Z,45.35
2023-05-11T01:15:46.470Z,41.10
2023-05-11T01:16:55.956Z,41.28
2023-05-11T01:18:07.863Z,39.83
2023-05-11T01:19:18.474Z,46.17
2023-05-11T01:20:26.947Z,41.22
2023-05-11T01:21:34.451Z,41.38
2023-05-11T01:22:50.539Z,40.63
2023-05-11T01:24:12.210Z,39.38
2023-05-11T01:25:28.736Z,38.35
2023-05-11T01:26:45.354Z,39.47
2023-05-11T01:28:15.457Z,44.58
2023-05-11T01:29:46.809Z,46.03
2023-05-11T01:30:53.019Z,43.55
2023-05-11T01:33:14.533Z,50.55
2023-05-11T01:34:23.665Z,40.58
2023-05-11T01:35:27.645Z,46.33
2023-05-11T01:36:34.361Z,40.95
2023-05-11T01:37:41.444Z,44.90
2023-05-11T01:38:46.715Z,42.78
2023-05-11T01:39:52.838Z,43.22
2023-05-11T01:40:57.806Z,53.10
2023-05-11T01:42:07.122Z,54.20
2023-05-11T01:43:13.765Z,49.67
2023-05-11T01:44:19.789Z,45.97
2023-05-11T01:45:26.096Z,48.83
2023-05-11T01:46:33.123Z,45.70
2023-05-11T01:47:37.332Z,48.38
2023-05-11T01:48:44.596Z,42.42
2023-05-11T01:49:47.333Z,50.85
2023-05-11T01:50:51.302Z,48.00
2023-05-11T01:51:55.111Z,44.85
2023-05-11T01:52:58.013Z,46.40
2023-05-11T01:54:01.858Z,46.80
2023-05-11T01:55:06.066Z,47.65
2023-05-11T01:56:09.360Z,46.15
2023-05-11T01:57:13.678Z,48.20
2023-05-11T01:58:17.153Z,40.20
2023-05-11T01:59:19.991Z,45.67
2023-05-11T02:00:23.855Z,45.03
2023-05-11T02:01:28.076Z,49.58
2023-05-11T02:02:32.345Z,43.53
2023-05-11T02:03:36.888Z,46.25
2023-05-11T02:04:40.209Z,44.83
2023-05-11T02:05:44.088Z,43.03
2023-05-11T02:06:48.418Z,47.88
2023-05-11T02:07:52.740Z,44.85
2023-05-11T02:08:56.371Z,44.20
2023-05-11T02:10:00.489Z,46.28
2023-05-11T02:11:04.444Z,47.92
2023-05-11T02:12:08.838Z,43.00
2023-05-11T02:13:11.580Z,48.72
2023-05-11T02:14:15.273Z,47.00
2023-05-11T02:15:17.989Z,41.53
2023-05-11T02:16:21.138Z,39.40
2023-05-11T02:17:25.306Z,45.92
2023-05-11T02:18:29.702Z,46.88
2023-05-11T02:19:33.650Z,44.55
2023-05-11T02:20:36.389Z,39.65
2023-05-11T02:21:39.604Z,44.45
2023-05-11T02:22:45.147Z,45.35
2023-05-11T02:23:50.037Z,48.58
2023-05-11T02:24:52.210Z,43.95
2023-05-11T02:25:54.984Z,45.75
2023-05-11T02:26:57.739Z,49.67
2023-05-11T02:28:00.007Z,41.10
2023-05-11T02:29:02.290Z,42.30
2023-05-11T02:30:05.367Z,48.53
2023-05-11T02:31:11.308Z,40.63
2023-05-11T02:32:17.720Z,44.80
2023-05-11T02:33:25.665Z,39.90
2023-05-11T02:34:34.392Z,42.92
2023-05-11T02:35:41.081Z,44.45
2023-05-11T02:36:44.058Z,43.22
2023-05-11T02:37:48.335Z,48.15
2023-05-11T02:38:55.254Z,43.20
2023-05-11T02:40:01.055Z,48.50
2023-05-11T02:41:07.314Z,43.85
2023-05-11T02:42:14.637Z,42.25
2023-05-11T02:43:32.900Z,44.45
2023-05-11T02:44:38.079Z,44.53
2023-05-11T02:45:44.642Z,39.05
2023-05-11T02:46:48.897Z,46.50
2023-05-11T02:47:54.681Z,42.03
2023-05-11T02:49:01.238Z,41.47
2023-05-11T02:50:06.639Z,41.80
2023-05-11T02:51:12.527Z,53.08
2023-05-11T02:52:16.213Z,45.95
2023-05-11T02:53:20.465Z,42.63
2023-05-11T02:54:24.727Z,37.60
2023-05-11T02:55:29.126Z,42.63
2023-05-11T02:56:31.767Z,40.53
2023-05-11T02:57:33.969Z,42.78
2023-05-11T02:58:36.583Z,38.33
2023-05-11T02:59:38.985Z,45.35
2023-05-11T03:00:41.297Z,41.40
2023-05-11T03:01:44.919Z,45.25
2023-05-11T03:02:47.154Z,36.78
2023-05-11T03:03:49.476Z,48.15
2023-05-11T03:04:51.694Z,42.80
2023-05-11T03:05:55.246Z,43.33
2023-05-11T03:06:57.434Z,43.15
2023-05-11T03:08:00.553Z,41.88
2023-05-11T03:09:02.825Z,44.45
2023-05-11T03:10:06.344Z,36.42
2023-05-11T03:11:11.089Z,39.63
2023-05-11T03:12:14.564Z,37.28
2023-05-11T03:13:16.869Z,36.88
2023-05-11T03:14:19.171Z,38.08
2023-05-11T03:15:22.094Z,39.35
2023-05-11T03:16:24.731Z,37.15
2023-05-11T03:17:28.675Z,38.13
2023-05-11T03:18:32.389Z,44.47
2023-05-11T03:19:35.299Z,33.17
2023-05-11T03:20:42.039Z,37.00
2023-05-11T03:21:46.675Z,33.85
2023-05-11T03:22:49.583Z,36.15
2023-05-11T03:23:52.213Z,39.13
2023-05-11T03:24:54.719Z,35.15
2023-05-11T03:25:58.684Z,44.53
2023-05-11T03:27:04.233Z,37.90
2023-05-11T03:28:07.325Z,44.42
2023-05-11T03:29:10.141Z,48.78
2023-05-11T03:30:14.575Z,41.97
2023-05-11T03:31:18.346Z,46.92
2023-05-11T03:32:20.687Z,43.88
2023-05-11T03:33:23.370Z,52.28
2023-05-11T03:34:25.695Z,41.03
2023-05-11T03:35:29.255Z,38.15
2023-05-11T03:36:33.152Z,36.33
2023-05-11T03:37:38.327Z,49.83
2023-05-11T03:38:41.366Z,49.47
2023-05-11T03:39:45.678Z,44.78
2023-05-11T03:40:49.562Z,35.25
2023-05-11T03:41:53.326Z,43.15
2023-05-11T03:42:56.827Z,38.30
2023-05-11T03:44:02.425Z,51.67
2023-05-11T03:45:09.105Z,49.53
2023-05-11T03:46:13.726Z,38.30
2023-05-11T03:47:17.503Z,48.63
2023-05-11T03:48:20.714Z,49.20
2023-05-11T03:49:23.980Z,50.95
2023-05-11T03:50:27.502Z,41.25
2023-05-11T03:51:31.881Z,49.70
2023-05-11T03:52:36.838Z,45.17
2023-05-11T03:53:39.301Z,50.40
2023-05-11T03:54:42.701Z,49.45
2023-05-11T03:55:44.907Z,54.70
2023-05-11T03:56:47.047Z,39.20
2023-05-11T03:57:49.244Z,38.08
2023-05-11T03:58:52.303Z,30.83
2023-05-11T03:59:54.432Z,30.95
2023-05-11T04:00:56.570Z,39.22
2023-05-11T04:01:59.015Z,28.33
2023-05-11T04:03:04.791Z,28.90
2023-05-11T04:04:07.220Z,25.20
2023-05-11T04:05:10.828Z,28.67
2023-05-11T04:06:12.966Z,25.90
2023-05-11T04:07:15.080Z,26.73
2023-05-11T04:08:18.607Z,23.40
2023-05-11T04:09:20.776Z,20.55
2023-05-11T04:10:23.661Z,21.70
2023-05-11T04:11:27.591Z,25.77
2023-05-11T04:12:29.723Z,24.65
2023-05-11T04:13:31.867Z,20.48
2023-05-11T04:14:34.006Z,24.42
2023-05-11T04:15:37.621Z,23.25
2023-05-11T04:16:39.980Z,29.25
2023-05-11T04:17:42.220Z,31.05
2023-05-11T04:18:44.400Z,30.17
2023-05-11T04:19:46.692Z,28.23
2023-05-11T04:20:48.846Z,31.73
2023-05-11T04:21:50.933Z,28.55
2023-05-11T04:22:53.047Z,27.95
2023-05-11T04:23:56.690Z,28.27
2023-05-11T04:25:11.599Z,33.92
2023-05-11T04:26:13.691Z,33.78
2023-05-11T04:27:16.567Z,24.58
2023-05-11T04:28:18.764Z,26.15
2023-05-11T04:29:20.887Z,32.15
2023-05-11T04:30:23.231Z,28.88
2023-05-11T04:31:25.451Z,32.67
2023-05-11T04:32:28.865Z,26.60
2023-05-11T04:33:31.296Z,25.92
2023-05-11T04:34:33.636Z,32.25
2023-05-11T04:35:39.765Z,30.58
2023-05-11T04:36:46.788Z,37.47
2023-05-11T04:37:49.073Z,32.42
2023-05-11T04:38:53.165Z,28.85
2023-05-11T04:39:57.121Z,36.08
2023-05-11T04:41:03.612Z,30.10
2023-05-11T04:42:05.834Z,53.38
2023-05-11T04:43:07.978Z,30.33
2023-05-11T04:44:10.565Z,38.13
2023-05-11T04:45:12.896Z,31.92
2023-05-11T04:46:15.486Z,33.15
2023-05-11T04:47:17.637Z,26.85
2023-05-11T04:48:20.875Z,25.10
2023-05-11T04:49:23.488Z,34.63
2023-05-11T04:50:25.684Z,34.78
2023-05-11T04:51:27.887Z,29.42
2023-05-11T04:52:30.085Z,24.27
2023-05-11T04:53:32.243Z,31.70
2023-05-11T04:54:34.473Z,24.77
2023-05-11T04:55:38.216Z,31.50
2023-05-11T04:56:41.031Z,29.00
2023-05-11T04:57:43.359Z,26.90
2023-05-11T04:58:45.513Z,27.30
2023-05-11T04:59:47.790Z,31.00
2023-05-11T05:00:50.093Z,26.00
2023-05-11T05:01:52.251Z,32.78
2023-05-11T05:02:54.587Z,29.25
2023-05-11T05:03:56.809Z,23.70
2023-05-11T05:04:58.956Z,25.55
2023-05-11T05:06:01.213Z,29.50
2023-05-11T05:07:04.338Z,30.80
2023-05-11T05:08:07.475Z,31.13
2023-05-11T05:09:10.265Z,25.92
2023-05-11T05:10:12.999Z,29.38
2023-05-11T05:11:16.718Z,27.25
2023-05-11T05:12:18.861Z,34.35
2023-05-11T05:13:21.521Z,31.17
2023-05-11T05:14:23.718Z,35.92
2023-05-11T05:15:25.968Z,30.17
2023-05-11T05:16:29.015Z,27.23
2023-05-11T05:17:32.296Z,38.85
2023-05-11T05:18:34.628Z,25.83
2023-05-11T05:19:37.375Z,34.67
2023-05-11T05:20:39.799Z,32.80
2023-05-11T05:21:42.726Z,25.95
2023-05-11T05:22:45.833Z,25.30
2023-05-11T05:23:48.098Z,30.45
2023-05-11T05:24:50.331Z,35.53
2023-05-11T05:25:52.489Z,33.80
2023-05-11T05:26:55.998Z,22.23
2023-05-11T05:27:58.116Z,30.67
2023-05-11T05:29:00.327Z,30.02
2023-05-11T05:30:02.434Z,26.77
2023-05-11T05:31:04.739Z,28.13
2023-05-11T05:32:06.962Z,34.22
2023-05-11T05:33:09.273Z,27.30
2023-05-11T05:34:14.702Z,24.45
2023-05-11T05:35:19.314Z,28.92
2023-05-11T05:36:21.457Z,31.63
2023-05-11T05:37:23.663Z,24.48
2023-05-11T05:38:25.913Z,21.13
2023-05-11T05:39:28.104Z,23.50
2023-05-11T05:40:30.503Z,20.00
2023-05-11T05:41:32.961Z,24.90
2023-05-11T05:42:36.500Z,23.67
2023-05-11T05:43:38.636Z,26.17
2023-05-11T05:44:40.937Z,16.15
2023-05-11T05:45:43.035Z,16.77
2023-05-11T05:46:45.630Z,26.27
2023-05-11T05:47:50.279Z,27.17
2023-05-11T05:48:52.415Z,25.70
2023-05-11T05:49:54.507Z,23.15
2023-05-11T05:50:56.613Z,27.13
2023-05-11T05:51:58.744Z,26.05
2023-05-11T05:53:00.963Z,22.38
2023-05-11T05:54:03.394Z,29.40
2023-05-11T05:55:06.563Z,24.25
2023-05-11T05:56:08.743Z,23.25
2023-05-11T05:57:11.892Z,20.00
2023-05-11T05:58:16.364Z,32.30
2023-05-11T05:59:21.180Z,31.65
2023-05-11T06:00:23.478Z,21.27
2023-05-11T06:01:25.634Z,24.63
2023-05-11T06:02:28.079Z,28.48
2023-05-11T06:03:30.511Z,19.27
2023-05-11T06:04:32.847Z,27.55
2023-05-11T06:05:35.015Z,22.10
2023-05-11T06:06:37.180Z,27.55
2023-05-11T06:07:39.604Z,19.95
2023-05-11T06:08:41.792Z,26.95
2023-05-11T06:09:43.896Z,30.42
2023-05-11T06:10:46.466Z,16.15
2023-05-11T06:11:48.636Z,23.15
2023-05-11T06:12:50.735Z,17.90
2023-05-11T06:13:54.231Z,22.50
2023-05-11T06:14:56.330Z,17.20
2023-05-11T06:15:58.552Z,25.83
2023-05-11T06:17:00.734Z,20.48
2023-05-11T06:18:03.119Z,19.05
2023-05-11T06:19:05.699Z,24.27
2023-05-11T06:20:09.480Z,23.80
2023-05-11T06:21:11.732Z,18.38
2023-05-11T06:22:13.866Z,20.88
2023-05-11T06:23:16.029Z,30.33
2023-05-11T06:24:18.405Z,21.98
2023-05-11T06:25:21.004Z,18.92
2023-05-11T06:26:25.265Z,18.38
2023-05-11T06:27:27.541Z,25.33
2023-05-11T06:28:30.103Z,19.83
2023-05-11T06:29:33.656Z,23.08
2023-05-11T06:30:35.873Z,18.55
2023-05-11T06:31:38.085Z,22.65
2023-05-11T06:33:26.628Z,20.77
2023-05-11T06:34:28.797Z,19.48
2023-05-11T06:35:31.165Z,27.00
2023-05-11T06:36:33.355Z,24.67
2023-05-11T06:37:35.641Z,27.17
2023-05-11T06:38:44.412Z,25.00
2023-05-11T06:39:47.117Z,32.55
2023-05-11T06:40:52.420Z,25.10
2023-05-11T06:41:55.225Z,27.75
2023-05-11T06:42:58.797Z,24.65
2023-05-11T06:44:00.942Z,25.33
2023-05-11T06:45:03.267Z,26.08
2023-05-11T06:46:05.804Z,23.88
2023-05-11T06:47:08.687Z,20.27
2023-05-11T06:48:10.865Z,23.75
2023-05-11T06:49:14.453Z,24.48
2023-05-11T06:50:18.006Z,18.35
2023-05-11T06:51:22.124Z,16.30
2023-05-11T06:52:24.304Z,26.77
2023-05-11T06:53:26.512Z,14.90
2023-05-11T06:54:28.697Z,20.48
2023-05-11T06:55:30.912Z,12.48
2023-05-11T06:56:34.346Z,24.05
2023-05-11T06:57:36.551Z,12.73
2023-05-11T06:58:38.706Z,21.42
2023-05-11T06:59:40.864Z,22.80
2023-05-11T07:00:43.032Z,18.77
2023-05-11T07:01:45.595Z,16.63
2023-05-11T07:02:47.857Z,24.67
2023-05-11T07:03:51.362Z,13.88
2023-05-11T07:04:57.082Z,18.65
2023-05-11T07:05:59.330Z,13.38
2023-05-11T07:07:01.592Z,16.23
2023-05-11T07:08:05.032Z,11.75
2023-05-11T07:09:07.220Z,15.18
2023-05-11T07:10:10.601Z,15.27
2023-05-11T07:11:13.362Z,11.48
2023-05-11T07:12:15.653Z,19.40
2023-05-11T07:13:17.848Z,13.35
2023-05-11T07:14:20.005Z,12.10
2023-05-11T07:15:22.556Z,11.15
2023-05-11T07:16:24.828Z,13.23
2023-05-11T07:17:28.637Z,15.10
2023-05-11T07:18:31.755Z,13.55
2023-05-11T07:19:33.918Z,16.13
2023-05-11T07:20:37.547Z,12.52
2023-05-11T07:21:39.744Z,12.65
2023-05-11T07:22:42.056Z,11.57
2023-05-11T07:23:44.637Z,9.50
2023-05-11T07:24:46.855Z,9.90
2023-05-11T07:25:50.789Z,11.18
2023-05-11T07:26:52.931Z,16.42
2023-05-11T07:27:55.848Z,8.65
2023-05-11T07:28:57.967Z,10.68
2023-05-11T07:30:00.178Z,9.82
2023-05-11T07:31:02.313Z,13.32
2023-05-11T07:32:04.914Z,13.18
2023-05-11T07:33:07.095Z,12.80
2023-05-11T07:34:09.347Z,7.78
2023-05-11T07:35:11.469Z,9.43
2023-05-11T07:36:15.044Z,7.25
2023-05-11T07:37:17.274Z,9.02
2023-05-11T07:38:19.453Z,6.63
2023-05-11T07:39:21.600Z,8.30
2023-05-11T07:40:23.950Z,5.95
2023-05-11T07:41:28.811Z,6.85
2023-05-11T07:42:31.056Z,5.75
2023-05-11T07:43:33.284Z,6.78
2023-05-11T07:44:35.461Z,8.82
2023-05-11T07:45:37.577Z,6.00
2023-05-11T07:46:39.845Z,8.18
2023-05-11T07:47:42.051Z,11.27
2023-05-11T07:48:44.337Z,11.15
2023-05-11T07:49:47.539Z,11.25
2023-05-11T07:50:49.759Z,8.65
2023-05-11T07:51:53.372Z,8.32
2023-05-11T07:52:55.599Z,11.15
2023-05-11T07:53:57.859Z,18.73
2023-05-11T07:55:00.117Z,11.93
2023-05-11T07:56:03.798Z,10.70
2023-05-11T07:57:06.779Z,9.93
2023-05-11T07:58:08.959Z,10.27
2023-05-11T07:59:11.140Z,7.43
2023-05-11T08:00:14.292Z,7.93
2023-05-11T08:01:16.400Z,10.57
2023-05-11T08:02:19.196Z,13.20
2023-05-11T08:03:21.881Z,5.43
2023-05-11T08:04:24.156Z,7.47
2023-05-11T08:05:27.085Z,7.65
2023-05-11T08:06:29.297Z,6.20
2023-05-11T08:07:32.894Z,8.68
2023-05-11T08:08:35.126Z,10.60
2023-05-11T08:09:37.450Z,10.15
2023-05-11T08:10:40.067Z,8.60
2023-05-11T08:11:42.247Z,5.35
2023-05-11T08:12:44.356Z,6.95
2023-05-11T08:13:46.500Z,8.35
2023-05-11T08:14:48.691Z,10.07
2023-05-11T08:15:50.884Z,6.20
2023-05-11T08:16:53.087Z,6.47
2023-05-11T08:17:55.552Z,7.65
2023-05-11T08:18:57.757Z,3.65
2023-05-11T08:19:59.963Z,8.90
2023-05-11T08:21:02.076Z,8.52
2023-05-11T08:22:04.315Z,7.88
2023-05-11T08:23:07.818Z,8.90
2023-05-11T08:24:10.588Z,6.55
2023-05-11T08:25:13.871Z,4.35
2023-05-11T08:26:16.274Z,26.15
2023-05-11T08:27:18.417Z,11.82
2023-05-11T08:28:21.154Z,2.63
2023-05-11T08:29:23.364Z,8.27
2023-05-11T08:30:25.755Z,7.75
2023-05-11T08:31:27.950Z,6.90
2023-05-11T08:32:30.523Z,5.70
2023-05-11T08:33:38.156Z,5.70
2023-05-11T08:34:41.084Z,5.57
2023-05-11T08:35:44.142Z,8.85
2023-05-11T08:36:46.889Z,6.32
2023-05-11T08:37:49.066Z,9.00
2023-05-11T08:38:56.957Z,6.60
2023-05-11T08:40:01.203Z,6.28
2023-05-11T08:41:04.967Z,9.60
2023-05-11T08:42:08.539Z,6.57
2023-05-11T08:43:11.497Z,5.07
2023-05-11T08:44:16.626Z,4.78
2023-05-11T08:45:19.871Z,4.28
2023-05-11T08:46:27.226Z,6.72
2023-05-11T08:47:30.188Z,5.05
2023-05-11T08:48:32.541Z,8.65
2023-05-11T08:49:35.492Z,4.30
2023-05-11T08:50:37.659Z,5.15
2023-05-11T08:51:39.989Z,8.32
2023-05-11T08:52:42.342Z,6.57
2023-05-11T08:53:44.817Z,5.75
2023-05-11T08:54:48.554Z,5.00
2023-05-11T08:55:51.614Z,6.47
2023-05-11T08:56:54.518Z,5.40
2023-05-11T08:57:58.726Z,4.88
2023-05-11T08:59:02.813Z,5.18
2023-05-11T09:00:05.802Z,10.40
2023-05-11T09:01:09.776Z,7.60
2023-05-11T09:02:16.440Z,5.03
2023-05-11T09:03:19.633Z,7.72
2023-05-11T09:04:24.568Z,5.82
2023-05-11T09:05:30.456Z,6.47
2023-05-11T09:06:33.565Z,10.30
2023-05-11T09:07:40.474Z,9.07
2023-05-11T09:08:45.362Z,6.43
2023-05-11T09:09:49.075Z,7.63
2023-05-11T09:10:52.065Z,4.25
2023-05-11T09:11:55.246Z,6.85
2023-05-11T09:12:57.436Z,8.63
2023-05-11T09:13:59.719Z,6.75
2023-05-11T09:15:02.274Z,4.40
2023-05-11T09:16:07.321Z,3.63
2023-05-11T09:17:13.674Z,5.47
2023-05-11T09:18:16.167Z,7.65
2023-05-11T09:19:18.323Z,5.07
2023-05-11T09:20:28.076Z,4.85
2023-05-11T09:21:31.600Z,6.65
2023-05-11T09:22:36.599Z,7.93
2023-05-11T09:23:40.354Z,7.25
2023-05-11T09:24:42.832Z,7.50
2023-05-11T09:25:48.969Z,10.75
2023-05-11T09:27:06.759Z,9.50
2023-05-11T09:28:15.920Z,4.55
2023-05-11T09:29:21.326Z,6.00
2023-05-11T09:30:24.226Z,6.90
2023-05-11T09:31:37.570Z,8.02
2023-05-11T09:32:51.007Z,8.45
2023-05-11T09:34:18.131Z,5.55
2023-05-11T09:35:22.117Z,8.88
2023-05-11T09:36:24.732Z,11.00
2023-05-11T09:37:26.898Z,4.55
2023-05-11T09:38:29.000Z,4.60
2023-05-11T09:40:39.801Z,6.72
2023-05-11T09:41:43.335Z,5.80
2023-05-11T09:42:45.501Z,6.97
2023-05-11T09:43:50.241Z,8.35
2023-05-11T09:44:52.930Z,6.13
2023-05-11T09:45:56.839Z,3.95
2023-05-11T09:47:11.737Z,6.30
2023-05-11T09:48:30.144Z,5.78
2023-05-11T09:49:33.271Z,4.80
2023-05-11T09:50:35.964Z,4.55
2023-05-11T09:51:40.510Z,3.75
2023-05-11T09:53:00.749Z,5.72
2023-05-11T09:54:17.212Z,3.95
2023-05-11T09:55:19.565Z,9.32
2023-05-11T09:56:22.120Z,4.57
2023-05-11T09:57:28.064Z,2.67
2023-05-11T09:58:49.539Z,9.48
2023-05-11T09:59:52.355Z,8.48
2023-05-11T10:00:54.544Z,9.30
2023-05-11T10:01:56.824Z,6.80
2023-05-11T10:03:04.270Z,8.57
2023-05-11T10:04:22.306Z,11.32
2023-05-11T10:05:27.771Z,4.28
2023-05-11T10:06:43.917Z,9.48
2023-05-11T10:07:58.100Z,6.88
2023-05-11T10:09:09.338Z,6.82
2023-05-11T10:10:12.527Z,5.60
2023-05-11T10:11:15.889Z,9.20
2023-05-11T10:12:21.308Z,7.18
2023-05-11T10:13:26.590Z,7.03
2023-05-11T10:14:30.474Z,2.97
2023-05-11T10:15:35.353Z,7.38
2023-05-11T10:16:37.843Z,6.90
2023-05-11T10:17:44.615Z,4.03
2023-05-11T10:18:47.236Z,6.80
2023-05-11T10:19:50.064Z,6.25
2023-05-11T10:20:53.065Z,2.58
2023-05-11T10:21:57.042Z,6.10
2023-05-11T10:22:59.374Z,5.15
2023-05-11T10:24:02.275Z,7.18
2023-05-11T10:25:06.518Z,5.18
2023-05-11T10:26:10.690Z,4.05
2023-05-11T10:27:13.365Z,7.32
2023-05-11T10:28:16.253Z,8.63
2023-05-11T10:29:20.529Z,6.47
2023-05-11T10:30:23.193Z,7.00
2023-05-11T10:31:26.190Z,7.07
2023-05-11T10:32:28.616Z,4.22
2023-05-11T10:33:31.497Z,5.35
2023-05-11T10:34:34.295Z,5.82
2023-05-11T10:35:39.198Z,2.65
2023-05-11T10:36:41.470Z,4.75
2023-05-11T10:37:43.836Z,7.00
2023-05-11T10:38:45.978Z,6.45
2023-05-11T10:39:50.438Z,4.53
2023-05-11T10:40:58.181Z,3.17
2023-05-11T10:42:17.661Z,7.82
2023-05-11T10:43:42.581Z,4.60
2023-05-11T10:45:21.532Z,6.50
2023-05-11T10:46:41.679Z,5.63
2023-05-11T10:48:09.840Z,6.90
2023-05-11T10:49:52.363Z,2.67
2023-05-11T10:51:48.076Z,7.25
2023-05-11T10:53:08.885Z,4.05
2023-05-11T10:54:26.936Z,7.15
2023-05-11T10:55:50.038Z,10.05
2023-05-11T10:57:13.422Z,6.53
2023-05-11T10:58:21.466Z,5.70
2023-05-11T10:59:53.623Z,8.85
2023-05-11T11:01:30.976Z,6.55
2023-05-11T11:02:33.726Z,6.70
2023-05-11T11:03:36.117Z,7.88
2023-05-11T11:04:46.496Z,5.00
2023-05-11T11:05:49.679Z,5.22
2023-05-11T11:07:05.171Z,9.43
2023-05-11T11:08:09.430Z,3.78
2023-05-11T11:09:13.674Z,3.03
2023-05-11T11:10:30.603Z,4.78
2023-05-11T11:11:35.975Z,3.40
2023-05-11T11:12:38.161Z,2.83
2023-05-11T11:13:58.844Z,4.55
2023-05-11T11:15:03.010Z,3.58
2023-05-11T11:16:15.428Z,5.47
2023-05-11T11:17:27.925Z,4.78
2023-05-11T11:18:33.416Z,12.35
2023-05-11T11:19:39.234Z,7.55
2023-05-11T11:20:48.941Z,6.53
2023-05-11T11:21:51.285Z,7.55
2023-05-11T11:22:53.463Z,6.65
2023-05-11T11:23:55.600Z,6.47
2023-05-11T11:24:57.950Z,3.00
2023-05-11T11:26:00.871Z,4.45
2023-05-11T11:27:03.310Z,6.22
2023-05-11T11:28:05.545Z,4.80
2023-05-11T11:29:13.732Z,10.80
2023-05-11T11:30:18.483Z,4.65
2023-05-11T11:31:25.565Z,4.68
2023-05-11T11:32:29.416Z,6.22
2023-05-11T11:33:33.154Z,3.78
2023-05-11T11:34:36.630Z,5.47
2023-05-11T11:35:46.015Z,5.22
2023-05-11T11:37:03.461Z,4.72
2023-05-11T11:38:06.513Z,2.55
2023-05-11T11:39:08.876Z,4.28
2023-05-11T11:40:15.225Z,7.95
2023-05-11T11:41:29.048Z,5.65
2023-05-11T11:42:37.881Z,15.18
2023-05-11T11:43:47.306Z,10.32
2023-05-11T11:44:49.495Z,10.70
2023-05-11T11:45:53.306Z,4.13
2023-05-11T11:47:10.926Z,3.60
2023-05-11T11:48:16.479Z,4.05
2023-05-11T11:49:27.690Z,9.90
2023-05-11T11:50:30.052Z,6.38
2023-05-11T11:51:34.737Z,4.57
2023-05-11T11:52:36.983Z,8.25
2023-05-11T11:54:00.696Z,3.58
2023-05-11T11:55:05.234Z,5.00
2023-05-11T11:56:09.077Z,5.60
2023-05-11T11:57:49.202Z,7.45
2023-05-11T11:58:58.703Z,5.18
2023-05-11T12:00:01.498Z,6.13
2023-05-11T12:01:05.351Z,5.55
2023-05-11T12:02:08.281Z,7.15
2023-05-11T12:03:10.991Z,3.72
2023-05-11T12:04:45.238Z,5.15
2023-05-11T12:05:51.057Z,7.97
2023-05-11T12:06:57.860Z,4.70
2023-05-11T12:08:05.718Z,6.40
2023-05-11T12:09:08.580Z,6.78
2023-05-11T12:10:13.646Z,7.63
2023-05-11T12:11:17.918Z,4.28
2023-05-11T12:12:21.054Z,6.40
2023-05-11T12:13:24.148Z,6.97
2023-05-11T12:14:27.750Z,5.45
2023-05-11T12:15:34.406Z,3.88
2023-05-11T12:16:36.889Z,4.63
2023-05-11T12:17:39.399Z,4.13
2023-05-11T12:18:42.642Z,2.20
2023-05-11T12:19:47.854Z,8.57
2023-05-11T12:20:50.768Z,9.73
2023-05-11T12:21:52.952Z,6.32
2023-05-11T12:22:55.858Z,4.05
2023-05-11T12:24:00.253Z,2.45
2023-05-11T12:25:06.002Z,5.55
2023-05-11T12:26:08.764Z,5.35
2023-05-11T12:27:11.377Z,3.53
2023-05-11T12:28:13.963Z,4.22
2023-05-11T12:29:16.196Z,6.03
2023-05-11T12:30:22.948Z,8.23
2023-05-11T12:31:27.204Z,5.32
2023-05-11T12:32:30.792Z,9.43
2023-05-11T12:33:33.217Z,3.95
2023-05-11T12:34:35.599Z,7.13
2023-05-11T12:35:40.475Z,6.93
2023-05-11T12:36:44.129Z,7.90
2023-05-11T12:37:46.282Z,13.05
2023-05-11T12:38:49.180Z,6.25
2023-05-11T12:39:55.559Z,3.70
2023-05-11T12:40:57.663Z,4.75
2023-05-11T12:41:59.868Z,2.60
2023-05-11T12:43:02.013Z,5.38
2023-05-11T12:44:04.471Z,7.65
2023-05-11T12:45:07.791Z,5.07
2023-05-11T12:46:10.091Z,5.60
2023-05-11T12:47:12.653Z,3.80
2023-05-11T12:48:15.436Z,6.60
2023-05-11T12:49:24.765Z,5.90
2023-05-11T12:50:27.956Z,4.03
2023-05-11T12:51:51.986Z,5.82
2023-05-11T12:52:54.317Z,6.63
2023-05-11T12:53:56.876Z,4.15
2023-05-11T12:55:00.837Z,5.25
2023-05-11T12:56:04.762Z,5.88
2023-05-11T12:57:08.518Z,7.55
2023-05-11T12:58:12.464Z,10.48
2023-05-11T12:59:32.094Z,6.78
2023-05-11T13:00:34.521Z,5.57
2023-05-11T13:01:36.916Z,9.43
2023-05-11T13:02:50.003Z,8.65
2023-05-11T13:03:52.772Z,6.18
2023-05-11T13:04:54.989Z,3.67
2023-05-11T13:06:05.557Z,4.93
2023-05-11T13:07:09.871Z,5.93
2023-05-11T13:08:14.774Z,4.90
2023-05-11T13:09:22.664Z,9.90
2023-05-11T13:10:26.847Z,5.32
2023-05-11T13:11:28.986Z,4.55
2023-05-11T13:12:32.701Z,4.57
2023-05-11T13:13:35.331Z,4.97
2023-05-11T13:14:39.041Z,5.65
2023-05-11T13:15:51.655Z,6.97
2023-05-11T13:16:54.257Z,4.38
2023-05-11T13:17:57.969Z,2.80
2023-05-11T13:19:01.278Z,4.63
2023-05-11T13:20:20.039Z,7.25
2023-05-11T13:21:22.673Z,4.85
2023-05-11T13:22:26.479Z,4.10
2023-05-11T13:23:31.296Z,8.07
2023-05-11T13:24:34.639Z,5.80
2023-05-11T13:25:56.030Z,5.20
2023-05-11T13:26:59.611Z,3.25
2023-05-11T13:28:01.764Z,3.70
2023-05-11T13:29:10.614Z,3.40
2023-05-11T13:30:13.787Z,5.65
2023-05-11T13:31:16.144Z,4.85
2023-05-11T13:32:18.544Z,4.20
2023-05-11T13:33:20.856Z,4.50
2023-05-11T13:34:23.190Z,4.78
2023-05-11T13:35:25.352Z,8.20
2023-05-11T13:36:27.586Z,7.70
2023-05-11T13:37:32.287Z,4.07
2023-05-11T13:38:34.588Z,5.38
2023-05-11T13:39:36.784Z,6.45
2023-05-11T13:40:39.317Z,8.93
2023-05-11T13:41:41.581Z,4.55
2023-05-11T13:42:43.947Z,5.55
2023-05-11T13:43:46.232Z,4.97
2023-05-11T13:44:48.341Z,6.78
2023-05-11T13:45:50.700Z,7.90
2023-05-11T13:46:52.856Z,4.28
2023-05-11T13:47:55.620Z,6.07
2023-05-11T13:48:59.686Z,5.85
2023-05-11T13:50:01.946Z,4.45
2023-05-11T13:51:04.271Z,5.63
2023-05-11T13:52:06.973Z,5.63
2023-05-11T13:53:12.985Z,3.45
2023-05-11T13:54:15.883Z,4.07
2023-05-11T13:55:18.537Z,4.32
2023-05-11T13:56:21.446Z,4.63
2023-05-11T13:57:23.894Z,7.97
2023-05-11T13:58:26.788Z,9.18
2023-05-11T13:59:29.003Z,9.02
2023-05-11T14:00:31.940Z,4.15
2023-05-11T14:01:34.181Z,8.85
2023-05-11T14:02:36.572Z,7.25
2023-05-11T14:03:39.895Z,6.22
2023-05-11T14:04:42.341Z,4.72
2023-05-11T14:05:44.672Z,9.35
2023-05-11T14:06:47.191Z,7.40
2023-05-11T14:07:49.502Z,4.45